createdAt,value
2023-02-25T00:00:11.194Z,95.17
2023-02-25T00:01:14.074Z,95.08
2023-02-25T00:02:15.392Z,95.67
2023-02-25T00:03:16.702Z,94.77
2023-02-25T00:04:18.001Z,93.18
2023-02-25T00:05:19.247Z,95.19
2023-02-25T00:06:23.900Z,95.01
2023-02-25T00:07:25.392Z,95.83
2023-02-25T00:08:26.663Z,96.02
2023-02-25T00:09:28.506Z,97.17
2023-02-25T00:10:29.769Z,97.21
2023-02-25T00:11:31.118Z,96.68
2023-02-25T00:12:32.396Z,95.79
2023-02-25T00:13:34.633Z,96.04
2023-02-25T00:14:35.888Z,95.90
2023-02-25T00:15:39.861Z,96.47
2023-02-25T00:16:41.129Z,95.11
2023-02-25T00:17:42.390Z,95.41
2023-02-25T00:18:43.663Z,96.32
2023-02-25T00:19:44.921Z,94.11
2023-02-25T00:20:46.202Z,94.89
2023-02-25T00:21:47.425Z,94.03
2023-02-25T00:22:49.126Z,93.61
2023-02-25T00:23:50.985Z,92.60
2023-02-25T00:24:55.315Z,93.01
2023-02-25T00:26:00.206Z,93.75
2023-02-25T00:27:01.429Z,92.42
2023-02-25T00:28:02.915Z,92.93
2023-02-25T00:29:04.113Z,93.81
2023-02-25T00:30:05.713Z,93.76
2023-02-25T00:31:11.413Z,93.94
2023-02-25T00:32:12.958Z,92.51
2023-02-25T00:33:14.302Z,93.43
2023-02-25T00:34:15.573Z,92.99
2023-02-25T00:35:16.817Z,94.00
2023-02-25T00:36:19.298Z,93.36
2023-02-25T00:37:20.604Z,92.96
2023-02-25T00:38:21.911Z,93.90
2023-02-25T00:39:23.276Z,93.91
2023-02-25T00:40:24.661Z,95.19
2023-02-25T00:41:27.055Z,95.62
2023-02-25T00:42:28.395Z,95.01
2023-02-25T00:43:29.647Z,94.13
2023-02-25T00:44:30.874Z,93.20
2023-02-25T00:45:32.598Z,92.87
2023-02-25T00:46:34.732Z,93.85
2023-02-25T00:47:36.190Z,94.75
2023-02-25T00:48:37.490Z,94.76
2023-02-25T00:49:38.728Z,93.65
2023-02-25T00:50:40.004Z,94.58
2023-02-25T00:51:41.277Z,93.62
2023-02-25T00:52:42.521Z,93.17
2023-02-25T00:53:43.812Z,92.73
2023-02-25T00:54:45.060Z,92.11
2023-02-25T00:55:46.322Z,93.75
2023-02-25T00:56:47.653Z,91.86
2023-02-25T00:57:48.949Z,91.94
2023-02-25T00:58:51.051Z,93.66
2023-02-25T00:59:52.266Z,94.18
2023-02-25T01:00:53.580Z,93.25
2023-02-25T01:01:54.879Z,91.95
2023-02-25T01:02:57.226Z,91.70
2023-02-25T01:03:59.012Z,90.36
2023-02-25T01:05:00.421Z,90.78
2023-02-25T01:06:01.765Z,92.52
2023-02-25T01:07:03.838Z,91.46
2023-02-25T01:08:05.183Z,91.23
2023-02-25T01:09:07.267Z,92.34
2023-02-25T01:10:09.577Z,91.68
2023-02-25T01:11:21.623Z,92.30
2023-02-25T01:12:23.783Z,91.75
2023-02-25T01:13:27.756Z,92.85
2023-02-25T01:14:29.087Z,90.94
2023-02-25T01:15:31.077Z,90.15
2023-02-25T01:16:35.052Z,91.40
2023-02-25T01:17:37.204Z,90.99
2023-02-25T01:18:38.418Z,92.63
2023-02-25T01:19:39.740Z,90.23
2023-02-25T01:20:41.023Z,91.98
2023-02-25T01:21:43.316Z,91.81
2023-02-25T01:22:44.584Z,92.26
2023-02-25T01:23:46.383Z,92.05
2023-02-25T01:24:47.592Z,92.11
2023-02-25T01:25:48.865Z,91.04
2023-02-25T01:26:51.505Z,92.04
2023-02-25T01:27:56.607Z,90.63
2023-02-25T01:28:58.024Z,91.60
2023-02-25T01:30:01.656Z,91.32
2023-02-25T01:31:03.636Z,92.43
2023-02-25T01:32:06.213Z,92.31
2023-02-25T01:33:07.508Z,92.94
2023-02-25T01:34:10.883Z,91.92
2023-02-25T01:35:12.181Z,92.21
2023-02-25T01:36:13.423Z,92.71
2023-02-25T01:37:14.657Z,93.15
2023-02-25T01:38:15.984Z,93.16
2023-02-25T01:39:18.517Z,93.30
2023-02-25T01:40:19.776Z,93.62
2023-02-25T01:41:20.995Z,92.91
2023-02-25T01:42:22.382Z,92.53
2023-02-25T01:43:23.569Z,94.03
2023-02-25T01:44:29.216Z,94.49
2023-02-25T01:45:30.720Z,95.08
2023-02-25T01:46:33.372Z,95.15
2023-02-25T01:47:37.490Z,94.19
2023-02-25T01:48:40.242Z,94.67
2023-02-25T01:49:42.926Z,94.37
2023-02-25T01:50:48.835Z,93.68
2023-02-25T01:51:54.726Z,93.82
2023-02-25T01:52:56.936Z,94.87
2023-02-25T01:53:59.334Z,95.34
2023-02-25T01:55:01.133Z,93.83
2023-02-25T01:56:03.311Z,94.01
2023-02-25T01:57:08.193Z,93.24
2023-02-25T01:58:10.381Z,93.07
2023-02-25T01:59:13.562Z,92.86
2023-02-25T02:00:15.190Z,93.73
2023-02-25T02:01:18.907Z,92.70
2023-02-25T02:02:22.598Z,91.83
2023-02-25T02:03:30.386Z,92.24
2023-02-25T02:04:33.499Z,91.53
2023-02-25T02:05:45.394Z,91.47
2023-02-25T02:06:47.798Z,90.01
2023-02-25T02:07:49.540Z,91.09
2023-02-25T02:08:51.166Z,89.62
2023-02-25T02:09:52.413Z,89.49
2023-02-25T02:10:53.710Z,89.86
2023-02-25T02:11:59.705Z,90.39
2023-02-25T02:13:01.134Z,90.61
2023-02-25T02:14:03.686Z,89.27
2023-02-25T02:15:07.681Z,89.91
2023-02-25T02:16:17.959Z,90.40
2023-02-25T02:17:35.638Z,88.32
2023-02-25T02:18:37.620Z,89.10
2023-02-25T02:19:53.903Z,89.12
2023-02-25T02:21:13.772Z,90.90
2023-02-25T02:22:18.170Z,90.16
2023-02-25T02:23:37.941Z,88.60
2023-02-25T02:24:39.190Z,90.81
2023-02-25T02:25:55.457Z,89.60
2023-02-25T02:27:10.698Z,89.87
2023-02-25T02:28:14.805Z,89.51
2023-02-25T02:29:30.463Z,89.50
2023-02-25T02:30:44.126Z,90.39
2023-02-25T02:31:45.400Z,91.52
2023-02-25T02:32:51.427Z,91.64
2023-02-25T02:33:55.780Z,91.45
2023-02-25T02:35:09.078Z,91.04
2023-02-25T02:36:21.196Z,90.77
2023-02-25T02:37:39.877Z,90.36
2023-02-25T02:39:13.345Z,90.53
2023-02-25T02:40:20.731Z,91.79
2023-02-25T02:41:25.070Z,92.08
2023-02-25T02:42:26.316Z,92.13
2023-02-25T02:43:36.680Z,91.12
2023-02-25T02:44:42.527Z,91.26
2023-02-25T02:45:54.054Z,91.57
2023-02-25T02:46:59.800Z,92.15
2023-02-25T02:48:23.622Z,92.32
2023-02-25T02:49:38.984Z,92.44
2023-02-25T02:50:42.892Z,93.10
2023-02-25T02:51:53.386Z,92.59
2023-02-25T02:52:57.663Z,93.18
2023-02-25T02:54:00.972Z,93.52
2023-02-25T02:55:12.011Z,92.25
2023-02-25T02:56:14.800Z,92.14
2023-02-25T02:57:19.925Z,92.13
2023-02-25T02:58:24.714Z,92.54
2023-02-25T02:59:29.717Z,93.00
2023-02-25T03:00:36.344Z,92.12
2023-02-25T03:01:49.251Z,93.37
2023-02-25T03:02:55.450Z,93.78
2023-02-25T03:04:02.496Z,93.07
2023-02-25T03:05:07.188Z,92.51
2023-02-25T03:06:11.260Z,93.36
2023-02-25T03:07:14.420Z,94.06
2023-02-25T03:08:20.038Z,94.08
2023-02-25T03:09:30.154Z,93.16
2023-02-25T03:10:32.099Z,92.84
2023-02-25T03:11:33.375Z,93.68
2023-02-25T03:12:34.715Z,92.88
2023-02-25T03:13:36.074Z,92.71
2023-02-25T03:14:38.245Z,92.66
2023-02-25T03:15:40.429Z,93.23
2023-02-25T03:16:44.945Z,93.56
2023-02-25T03:17:50.252Z,94.45
2023-02-25T03:19:02.459Z,93.82
2023-02-25T03:20:06.454Z,94.30
2023-02-25T03:21:11.675Z,94.88
2023-02-25T03:22:15.292Z,95.50
2023-02-25T03:23:21.236Z,95.71
2023-02-25T03:24:25.598Z,94.66
2023-02-25T03:25:29.776Z,95.51
2023-02-25T03:26:32.599Z,95.04
2023-02-25T03:27:38.406Z,95.63
2023-02-25T03:28:43.202Z,96.23
2023-02-25T03:29:44.502Z,96.25
2023-02-25T03:30:52.802Z,95.99
2023-02-25T03:31:57.425Z,96.07
2023-02-25T03:33:19.003Z,96.58
2023-02-25T03:34:23.932Z,96.43
2023-02-25T03:35:27.149Z,96.72
2023-02-25T03:36:31.379Z,96.16
2023-02-25T03:37:34.620Z,96.57
2023-02-25T03:38:41.265Z,97.11
2023-02-25T03:39:46.062Z,94.80
2023-02-25T03:40:48.909Z,95.95
2023-02-25T03:41:55.310Z,94.12
2023-02-25T03:43:00.488Z,94.83
2023-02-25T03:44:04.642Z,94.23
2023-02-25T03:45:07.766Z,93.19
2023-02-25T03:46:09.818Z,91.99
2023-02-25T03:47:11.934Z,92.13
2023-02-25T03:48:16.664Z,90.31
2023-02-25T03:49:23.353Z,90.97
2023-02-25T03:50:32.563Z,90.43
2023-02-25T03:51:39.359Z,89.47
2023-02-25T03:52:41.244Z,89.90
2023-02-25T03:53:51.661Z,87.79
2023-02-25T03:54:57.262Z,89.09
2023-02-25T03:56:00.686Z,87.82
2023-02-25T03:57:01.952Z,88.74
2023-02-25T03:58:03.258Z,88.14
2023-02-25T03:59:04.565Z,88.22
2023-02-25T04:00:09.723Z,88.42
2023-02-25T04:01:26.090Z,88.89
2023-02-25T04:02:32.618Z,89.55
2023-02-25T04:03:34.092Z,90.12
2023-02-25T04:04:36.210Z,90.42
2023-02-25T04:05:37.494Z,90.23
2023-02-25T04:06:38.894Z,89.98
2023-02-25T04:07:40.137Z,90.49
2023-02-25T04:08:42.252Z,89.88
2023-02-25T04:09:43.525Z,90.08
2023-02-25T04:10:45.481Z,90.33
2023-02-25T04:11:47.506Z,89.56
2023-02-25T04:12:48.808Z,88.79
2023-02-25T04:13:50.124Z,88.80
2023-02-25T04:14:52.110Z,88.72
2023-02-25T04:15:53.354Z,89.77
2023-02-25T04:16:54.590Z,88.99
2023-02-25T04:17:56.038Z,89.61
2023-02-25T04:18:57.330Z,88.78
2023-02-25T04:19:58.570Z,88.21
2023-02-25T04:21:00.104Z,89.19
2023-02-25T04:22:01.332Z,88.67
2023-02-25T04:23:02.634Z,89.22
2023-02-25T04:24:04.213Z,89.79
2023-02-25T04:25:05.623Z,89.83
2023-02-25T04:26:06.822Z,89.77
2023-02-25T04:27:08.102Z,89.26
2023-02-25T04:28:09.660Z,89.15
2023-02-25T04:29:10.874Z,88.05
2023-02-25T04:30:12.490Z,89.23
2023-02-25T04:31:13.839Z,89.68
2023-02-25T04:32:15.291Z,88.42
2023-02-25T04:33:16.600Z,88.43
2023-02-25T04:34:17.941Z,87.27
2023-02-25T04:35:19.146Z,86.19
2023-02-25T04:36:34.530Z,87.12
2023-02-25T04:37:35.799Z,85.97
2023-02-25T04:38:37.032Z,86.20
2023-02-25T04:39:38.332Z,84.94
2023-02-25T04:40:39.619Z,85.14
2023-02-25T04:41:40.918Z,85.20
2023-02-25T04:42:42.586Z,84.13
2023-02-25T04:43:43.800Z,85.03
2023-02-25T04:44:45.030Z,84.91
2023-02-25T04:45:46.264Z,85.34
2023-02-25T04:46:47.485Z,84.91
2023-02-25T04:47:48.712Z,84.66
2023-02-25T04:48:50.169Z,84.26
2023-02-25T04:49:51.416Z,85.50
2023-02-25T04:50:52.621Z,84.96
2023-02-25T04:51:53.813Z,84.93
2023-02-25T04:52:55.029Z,85.04
2023-02-25T04:53:56.345Z,84.91
2023-02-25T04:54:57.619Z,84.54
2023-02-25T04:56:02.157Z,84.21
2023-02-25T04:57:03.450Z,84.83
2023-02-25T04:58:04.662Z,83.46
2023-02-25T04:59:05.897Z,83.89
2023-02-25T05:00:08.003Z,83.38
2023-02-25T05:01:09.748Z,83.66
2023-02-25T05:02:11.004Z,84.10
2023-02-25T05:03:12.278Z,84.02
2023-02-25T05:04:13.500Z,83.54
2023-02-25T05:05:15.115Z,83.04
2023-02-25T05:06:16.404Z,83.46
2023-02-25T05:07:17.657Z,84.28
2023-02-25T05:08:18.996Z,84.39
2023-02-25T05:09:20.187Z,84.34
2023-02-25T05:10:21.415Z,84.43
2023-02-25T05:11:22.648Z,84.14
2023-02-25T05:12:23.880Z,83.96
2023-02-25T05:13:25.307Z,83.59
2023-02-25T05:14:26.793Z,83.93
2023-02-25T05:15:27.979Z,83.08
2023-02-25T05:16:29.305Z,83.97
2023-02-25T05:17:31.525Z,84.47
2023-02-25T05:18:35.090Z,84.98
2023-02-25T05:19:36.315Z,85.05
2023-02-25T05:20:41.700Z,84.65
2023-02-25T05:21:43.099Z,84.20
2023-02-25T05:22:44.361Z,82.97
2023-02-25T05:23:46.284Z,82.29
2023-02-25T05:24:47.479Z,83.17
2023-02-25T05:25:48.751Z,82.55
2023-02-25T05:26:50.024Z,83.03
2023-02-25T05:27:51.313Z,83.42
2023-02-25T05:28:54.015Z,83.60
2023-02-25T05:29:55.256Z,82.60
2023-02-25T05:30:56.834Z,82.45
2023-02-25T05:31:58.209Z,81.41
2023-02-25T05:32:59.561Z,81.66
2023-02-25T05:34:00.900Z,80.99
2023-02-25T05:35:02.140Z,80.94
2023-02-25T05:36:07.370Z,80.99
2023-02-25T05:37:08.576Z,81.92
2023-02-25T05:38:09.844Z,81.08
2023-02-25T05:39:12.492Z,82.28
2023-02-25T05:40:13.731Z,81.92
2023-02-25T05:41:15.696Z,81.82
2023-02-25T05:42:16.949Z,82.44
2023-02-25T05:43:18.162Z,81.50
2023-02-25T05:44:19.370Z,81.30
2023-02-25T05:45:20.627Z,81.52
2023-02-25T05:46:22.373Z,81.64
2023-02-25T05:47:23.828Z,81.83
2023-02-25T05:48:25.132Z,81.91
2023-02-25T05:49:26.396Z,82.32
2023-02-25T05:50:27.763Z,82.36
2023-02-25T05:51:29.311Z,81.25
2023-02-25T05:52:30.511Z,82.24
2023-02-25T05:53:32.196Z,81.74
2023-02-25T05:54:33.445Z,81.50
2023-02-25T05:55:34.722Z,79.95
2023-02-25T05:56:35.927Z,80.11
2023-02-25T05:57:37.143Z,79.68
2023-02-25T05:58:38.369Z,78.89
2023-02-25T05:59:39.623Z,79.61
2023-02-25T06:00:40.864Z,79.49
2023-02-25T06:01:42.177Z,79.04
2023-02-25T06:02:43.535Z,79.58
2023-02-25T06:03:45.485Z,79.48
2023-02-25T06:04:46.768Z,79.70
2023-02-25T06:05:48.181Z,80.26
2023-02-25T06:06:49.468Z,80.57
2023-02-25T06:07:50.668Z,80.41
2023-02-25T06:08:52.475Z,81.21
2023-02-25T06:09:53.739Z,81.24
2023-02-25T06:10:54.957Z,80.86
2023-02-25T06:11:56.227Z,80.49
2023-02-25T06:12:57.496Z,81.09
2023-02-25T06:13:59.097Z,80.78
2023-02-25T06:15:00.361Z,80.39
2023-02-25T06:16:04.667Z,79.70
2023-02-25T06:17:05.970Z,80.24
2023-02-25T06:18:07.505Z,80.90
2023-02-25T06:19:10.520Z,80.96
2023-02-25T06:20:12.032Z,81.07
2023-02-25T06:21:14.152Z,81.67
2023-02-25T06:22:15.518Z,81.31
2023-02-25T06:23:16.719Z,79.37
2023-02-25T06:24:20.693Z,80.24
2023-02-25T06:25:22.359Z,80.67
2023-02-25T06:26:23.872Z,80.49
2023-02-25T06:27:25.351Z,80.71
2023-02-25T06:28:26.865Z,80.87
2023-02-25T06:29:28.184Z,81.70
2023-02-25T06:30:32.701Z,81.23
2023-02-25T06:31:34.001Z,81.72
2023-02-25T06:32:35.334Z,82.11
2023-02-25T06:33:36.934Z,82.29
2023-02-25T06:34:38.463Z,82.13
2023-02-25T06:35:39.686Z,82.72
2023-02-25T06:36:40.911Z,82.16
2023-02-25T06:37:42.116Z,82.55
2023-02-25T06:38:43.799Z,83.07
2023-02-25T06:39:45.083Z,83.42
2023-02-25T06:40:46.817Z,83.06
2023-02-25T06:41:48.055Z,82.84
2023-02-25T06:42:49.490Z,82.81
2023-02-25T06:43:51.036Z,83.41
2023-02-25T06:44:52.252Z,83.49
2023-02-25T06:45:53.559Z,83.90
2023-02-25T06:46:54.962Z,83.51
2023-02-25T06:47:56.203Z,83.99
2023-02-25T06:48:57.824Z,83.60
2023-02-25T06:50:01.320Z,83.66
2023-02-25T06:51:03.710Z,82.33
2023-02-25T06:52:04.952Z,82.84
2023-02-25T06:53:06.464Z,82.98
2023-02-25T06:54:07.757Z,82.46
2023-02-25T06:55:09.679Z,80.79
2023-02-25T06:56:11.921Z,81.23
2023-02-25T06:57:13.171Z,81.89
2023-02-25T06:58:15.710Z,81.31
2023-02-25T06:59:16.986Z,81.12
2023-02-25T07:00:18.359Z,81.32
2023-02-25T07:01:19.730Z,80.77
2023-02-25T07:02:20.966Z,80.67
2023-02-25T07:03:22.227Z,80.71
2023-02-25T07:04:23.514Z,81.45
2023-02-25T07:05:24.842Z,81.38
2023-02-25T07:06:26.153Z,81.85
2023-02-25T07:07:27.367Z,81.88
2023-02-25T07:08:28.588Z,81.59
2023-02-25T07:09:29.784Z,80.82
2023-02-25T07:10:31.521Z,81.15
2023-02-25T07:11:33.155Z,81.27
2023-02-25T07:12:34.382Z,82.42
2023-02-25T07:13:35.583Z,81.75
2023-02-25T07:14:36.810Z,81.21
2023-02-25T07:15:38.138Z,80.38
2023-02-25T07:16:39.476Z,78.78
2023-02-25T07:17:40.681Z,79.24
2023-02-25T07:18:42.010Z,79.12
2023-02-25T07:19:43.269Z,79.55
2023-02-25T07:20:44.522Z,77.62
2023-02-25T07:21:45.812Z,78.33
2023-02-25T07:22:47.061Z,78.51
2023-02-25T07:23:48.983Z,78.54
2023-02-25T07:24:50.225Z,79.03
2023-02-25T07:25:51.540Z,80.40
2023-02-25T07:26:52.933Z,80.05
2023-02-25T07:27:54.193Z,80.45
2023-02-25T07:28:56.531Z,81.56
2023-02-25T07:29:57.800Z,81.36
2023-02-25T07:31:02.889Z,82.11
2023-02-25T07:32:04.425Z,80.69
2023-02-25T07:33:06.121Z,81.27
2023-02-25T07:34:07.465Z,81.66
2023-02-25T07:35:09.451Z,81.05
2023-02-25T07:36:11.508Z,80.39
2023-02-25T07:37:12.754Z,80.27
2023-02-25T07:38:13.954Z,80.43
2023-02-25T07:39:15.196Z,81.37
2023-02-25T07:40:19.253Z,80.96
2023-02-25T07:41:20.604Z,80.27
2023-02-25T07:42:21.952Z,80.59
2023-02-25T07:43:23.166Z,79.54
2023-02-25T07:44:24.361Z,78.78
2023-02-25T07:45:25.565Z,80.04
2023-02-25T07:46:26.989Z,80.23
2023-02-25T07:47:28.332Z,79.94
2023-02-25T07:48:29.621Z,80.03
2023-02-25T07:49:30.867Z,80.07
2023-02-25T07:50:32.294Z,78.70
2023-02-25T07:51:36.598Z,78.89
2023-02-25T07:52:38.273Z,79.34
2023-02-25T07:53:39.838Z,77.35
2023-02-25T07:54:41.113Z,77.51
2023-02-25T07:55:45.369Z,77.83
2023-02-25T07:56:47.086Z,77.44
2023-02-25T07:57:48.338Z,77.80
2023-02-25T07:58:49.573Z,76.63
2023-02-25T07:59:50.817Z,75.95
2023-02-25T08:00:52.037Z,76.05
2023-02-25T08:01:53.242Z,75.93
2023-02-25T08:02:54.596Z,75.87
2023-02-25T08:03:57.362Z,75.23
2023-02-25T08:04:58.576Z,73.96
2023-02-25T08:05:59.810Z,74.54
2023-02-25T08:07:01.065Z,73.19
2023-02-25T08:08:05.125Z,72.74
2023-02-25T08:09:07.332Z,73.87
2023-02-25T08:10:08.990Z,73.08
2023-02-25T08:11:11.197Z,73.46
2023-02-25T08:12:15.159Z,72.82
2023-02-25T08:13:16.436Z,72.79
2023-02-25T08:14:17.683Z,72.95
2023-02-25T08:15:19.256Z,73.32
2023-02-25T08:16:21.344Z,73.38
2023-02-25T08:17:25.117Z,72.36
2023-02-25T08:18:26.378Z,73.35
2023-02-25T08:19:27.969Z,71.47
2023-02-25T08:20:29.231Z,72.31
2023-02-25T08:21:30.655Z,71.44
2023-02-25T08:22:31.845Z,71.37
2023-02-25T08:23:33.117Z,71.17
2023-02-25T08:24:34.642Z,72.15
2023-02-25T08:25:35.864Z,72.38
2023-02-25T08:26:37.116Z,72.60
2023-02-25T08:27:38.351Z,71.81
2023-02-25T08:28:39.710Z,71.40
2023-02-25T08:29:40.950Z,71.19
2023-02-25T08:30:42.211Z,70.29
2023-02-25T08:31:43.568Z,69.47
2023-02-25T08:32:44.972Z,69.33
2023-02-25T08:33:47.744Z,69.09
2023-02-25T08:34:50.243Z,69.41
2023-02-25T08:35:51.511Z,70.69
2023-02-25T08:36:52.724Z,69.96
2023-02-25T08:37:53.977Z,68.16
2023-02-25T08:38:55.576Z,68.89
2023-02-25T08:39:56.834Z,67.63
2023-02-25T08:40:59.909Z,67.89
2023-02-25T08:42:01.160Z,68.36
2023-02-25T08:43:02.398Z,68.72
2023-02-25T08:44:04.088Z,69.10
2023-02-25T08:45:09.861Z,69.34
2023-02-25T08:46:11.845Z,68.74
2023-02-25T08:47:14.028Z,67.25
2023-02-25T08:48:15.274Z,68.29
2023-02-25T08:49:16.513Z,69.22
2023-02-25T08:50:17.814Z,66.19
2023-02-25T08:51:19.735Z,66.82
2023-02-25T08:52:20.963Z,66.90
2023-02-25T08:53:22.864Z,67.28
2023-02-25T08:54:24.148Z,66.89
2023-02-25T08:55:25.996Z,67.71
2023-02-25T08:56:27.580Z,66.66
2023-02-25T08:57:29.689Z,68.34
2023-02-25T08:58:31.477Z,67.49
2023-02-25T08:59:32.686Z,67.22
2023-02-25T09:00:34.196Z,65.99
2023-02-25T09:01:35.443Z,67.01
2023-02-25T09:02:37.811Z,67.76
2023-02-25T09:03:40.305Z,68.24
2023-02-25T09:04:41.548Z,68.21
2023-02-25T09:05:42.801Z,68.75
2023-02-25T09:06:44.035Z,68.67
2023-02-25T09:07:45.226Z,69.96
2023-02-25T09:08:46.510Z,67.52
2023-02-25T09:09:47.784Z,67.55
2023-02-25T09:10:50.828Z,66.83
2023-02-25T09:11:52.634Z,66.78
2023-02-25T09:12:53.912Z,67.24
2023-02-25T09:13:55.147Z,67.98
2023-02-25T09:14:56.561Z,67.90
2023-02-25T09:15:58.003Z,67.97
2023-02-25T09:16:59.362Z,66.75
2023-02-25T09:18:00.550Z,68.79
2023-02-25T09:19:01.942Z,67.66
2023-02-25T09:20:03.386Z,66.98
2023-02-25T09:21:04.730Z,67.37
2023-02-25T09:22:06.760Z,65.94
2023-02-25T09:23:07.953Z,66.79
2023-02-25T09:24:09.253Z,65.49
2023-02-25T09:25:10.473Z,65.43
2023-02-25T09:26:11.736Z,65.40
2023-02-25T09:27:12.955Z,65.17
2023-02-25T09:28:14.208Z,65.87
2023-02-25T09:29:16.070Z,65.51
2023-02-25T09:30:17.402Z,65.95
2023-02-25T09:31:18.726Z,64.43
2023-02-25T09:32:20.798Z,64.70
2023-02-25T09:33:22.137Z,65.30
2023-02-25T09:34:23.391Z,63.77
2023-02-25T09:35:24.636Z,64.04
2023-02-25T09:36:25.902Z,63.42
2023-02-25T09:37:27.112Z,62.64
2023-02-25T09:38:28.336Z,62.31
2023-02-25T09:39:29.785Z,61.67
2023-02-25T09:40:31.062Z,61.38
2023-02-25T09:41:48.962Z,62.16
2023-02-25T09:42:53.329Z,61.90
2023-02-25T09:44:00.634Z,60.67
2023-02-25T09:45:02.520Z,60.95
2023-02-25T09:46:10.186Z,61.04
2023-02-25T09:47:17.250Z,60.75
2023-02-25T09:48:31.125Z,60.42
2023-02-25T09:49:41.479Z,60.13
2023-02-25T09:50:46.585Z,60.28
2023-02-25T09:51:52.315Z,59.81
2023-02-25T09:53:00.813Z,59.27
2023-02-25T09:54:08.964Z,59.16
2023-02-25T09:55:16.340Z,61.09
2023-02-25T09:56:18.053Z,60.48
2023-02-25T09:57:20.192Z,59.78
2023-02-25T09:58:30.726Z,60.91
2023-02-25T09:59:32.511Z,59.73
2023-02-25T10:00:37.193Z,59.02
2023-02-25T10:01:42.210Z,58.92
2023-02-25T10:02:47.206Z,59.53
2023-02-25T10:03:59.249Z,59.27
2023-02-25T10:05:00.509Z,60.25
2023-02-25T10:06:05.418Z,59.29
2023-02-25T10:07:28.424Z,57.88
2023-02-25T10:08:50.716Z,59.21
2023-02-25T10:09:51.936Z,58.22
2023-02-25T10:11:07.555Z,58.20
2023-02-25T10:12:11.618Z,58.81
2023-02-25T10:13:12.829Z,59.07
2023-02-25T10:14:23.360Z,58.19
2023-02-25T10:15:29.497Z,59.26
2023-02-25T10:16:43.083Z,59.00
2023-02-25T10:17:58.281Z,58.58
2023-02-25T10:19:14.675Z,58.60
2023-02-25T10:20:28.866Z,58.80
2023-02-25T10:21:45.185Z,58.59
2023-02-25T10:22:54.202Z,59.07
2023-02-25T10:24:10.135Z,59.16
2023-02-25T10:25:14.742Z,57.26
2023-02-25T10:26:19.170Z,58.62
2023-02-25T10:27:26.590Z,58.75
2023-02-25T10:28:29.569Z,59.76
2023-02-25T10:29:47.365Z,59.21
2023-02-25T10:30:53.026Z,60.17
2023-02-25T10:31:59.441Z,58.97
2023-02-25T10:33:04.334Z,59.66
2023-02-25T10:34:25.642Z,60.91
2023-02-25T10:35:28.149Z,60.20
2023-02-25T10:36:36.052Z,59.22
2023-02-25T10:37:37.536Z,58.89
2023-02-25T10:38:41.857Z,60.42
2023-02-25T10:39:43.110Z,61.19
2023-02-25T10:40:44.338Z,60.43
2023-02-25T10:41:45.629Z,60.39
2023-02-25T10:42:48.401Z,61.83
2023-02-25T10:43:51.047Z,61.12
2023-02-25T10:44:52.293Z,61.13
2023-02-25T10:46:00.095Z,60.21
2023-02-25T10:47:03.329Z,60.09
2023-02-25T10:48:13.695Z,60.73
2023-02-25T10:49:17.008Z,60.68
2023-02-25T10:50:18.252Z,60.44
2023-02-25T10:51:19.580Z,60.10
2023-02-25T10:52:20.914Z,59.29
2023-02-25T10:53:24.158Z,58.11
2023-02-25T10:54:25.499Z,59.74
2023-02-25T10:55:26.781Z,58.62
2023-02-25T10:56:33.121Z,58.42
2023-02-25T10:57:40.734Z,59.50
2023-02-25T10:58:44.173Z,58.58
2023-02-25T10:59:45.907Z,57.36
2023-02-25T11:00:57.467Z,57.69
2023-02-25T11:01:59.683Z,57.61
2023-02-25T11:03:01.901Z,57.19
2023-02-25T11:04:09.576Z,58.46
2023-02-25T11:05:30.072Z,57.40
2023-02-25T11:06:32.958Z,56.73
2023-02-25T11:07:39.929Z,57.68
2023-02-25T11:08:41.212Z,58.75
2023-02-25T11:09:42.461Z,58.69
2023-02-25T11:10:59.391Z,59.38
2023-02-25T11:12:11.569Z,60.09
2023-02-25T11:13:27.221Z,59.95
2023-02-25T11:14:30.010Z,59.49
2023-02-25T11:15:46.101Z,59.93
2023-02-25T11:16:47.792Z,61.23
2023-02-25T11:17:49.094Z,60.14
2023-02-25T11:18:52.274Z,60.38
2023-02-25T11:19:59.363Z,60.50
2023-02-25T11:21:02.294Z,59.24
2023-02-25T11:22:11.271Z,59.73
2023-02-25T11:23:20.055Z,60.07
2023-02-25T11:24:32.802Z,59.67
2023-02-25T11:25:36.863Z,59.55
2023-02-25T11:26:41.717Z,60.67
2023-02-25T11:27:44.913Z,61.28
2023-02-25T11:28:48.053Z,61.49
2023-02-25T11:29:49.998Z,60.97
2023-02-25T11:30:51.624Z,59.87
2023-02-25T11:31:55.678Z,61.45
2023-02-25T11:32:57.760Z,62.01
2023-02-25T11:34:00.309Z,61.84
2023-02-25T11:35:06.666Z,61.80
2023-02-25T11:36:08.064Z,61.96
2023-02-25T11:37:27.907Z,62.19
2023-02-25T11:38:32.709Z,62.50
2023-02-25T11:39:33.924Z,62.30
2023-02-25T11:40:41.420Z,60.68
2023-02-25T11:41:43.391Z,61.04
2023-02-25T11:42:59.112Z,60.88
2023-02-25T11:44:18.430Z,59.87
2023-02-25T11:45:19.732Z,60.17
2023-02-25T11:46:28.952Z,60.90
2023-02-25T11:47:35.330Z,60.55
2023-02-25T11:48:46.230Z,60.57
2023-02-25T11:49:52.633Z,59.75
2023-02-25T11:51:12.929Z,60.61
2023-02-25T11:52:21.249Z,61.31
2023-02-25T11:53:47.777Z,61.53
2023-02-25T11:54:57.468Z,62.14
2023-02-25T11:56:02.618Z,62.08
2023-02-25T11:57:03.889Z,61.80
2023-02-25T11:58:11.536Z,61.99
2023-02-25T11:59:27.493Z,61.44
2023-02-25T12:00:34.929Z,61.30
2023-02-25T12:01:39.217Z,62.21
2023-02-25T12:02:47.647Z,62.64
2023-02-25T12:04:07.467Z,62.10
2023-02-25T12:05:13.799Z,62.62
2023-02-25T12:06:21.545Z,63.18
2023-02-25T12:07:47.770Z,62.06
2023-02-25T12:09:15.877Z,61.59
2023-02-25T12:10:35.954Z,63.32
2023-02-25T12:11:48.708Z,62.80
2023-02-25T12:13:08.805Z,62.84
2023-02-25T12:14:28.087Z,63.79
2023-02-25T12:15:40.543Z,63.54
2023-02-25T12:16:42.627Z,64.50
2023-02-25T12:17:44.638Z,66.15
2023-02-25T12:18:45.840Z,66.08
2023-02-25T12:20:03.057Z,68.08
2023-02-25T12:21:07.717Z,67.89
2023-02-25T12:22:12.009Z,68.30
2023-02-25T12:23:13.276Z,69.14
2023-02-25T12:24:36.447Z,68.58
2023-02-25T12:25:56.469Z,68.11
2023-02-25T12:27:16.364Z,69.32
2023-02-25T12:28:33.975Z,70.88
2023-02-25T12:29:57.996Z,71.61
2023-02-25T12:31:25.449Z,69.84
2023-02-25T12:32:26.915Z,72.45
2023-02-25T12:33:34.170Z,72.52
2023-02-25T12:34:47.521Z,72.46
2023-02-25T12:35:51.544Z,72.58
2023-02-25T12:37:11.570Z,73.63
2023-02-25T12:38:39.841Z,73.27
2023-02-25T12:39:48.100Z,74.08
2023-02-25T12:41:00.850Z,73.35
2023-02-25T12:42:02.069Z,73.88
2023-02-25T12:43:09.090Z,74.82
2023-02-25T12:44:30.178Z,74.36
2023-02-25T12:45:53.863Z,72.77
2023-02-25T12:47:13.679Z,74.57
2023-02-25T12:48:30.458Z,74.92
2023-02-25T12:49:50.375Z,74.37
2023-02-25T12:51:09.719Z,73.66
2023-02-25T12:52:17.750Z,72.68
2023-02-25T12:53:23.932Z,74.02
2023-02-25T12:54:25.165Z,73.43
2023-02-25T12:55:26.458Z,72.21
2023-02-25T12:56:36.704Z,71.61
2023-02-25T12:57:52.826Z,72.31
2023-02-25T12:59:12.934Z,71.81
2023-02-25T13:00:22.987Z,72.38
2023-02-25T13:01:32.531Z,72.24
2023-02-25T13:02:39.016Z,71.31
2023-02-25T13:03:58.640Z,72.25
2023-02-25T13:05:00.111Z,71.63
2023-02-25T13:06:13.601Z,71.89
2023-02-25T13:07:30.265Z,72.23
2023-02-25T13:08:46.658Z,72.33
2023-02-25T13:09:47.862Z,72.46
2023-02-25T13:10:55.002Z,73.60
2023-02-25T13:12:12.718Z,71.68
2023-02-25T13:13:33.320Z,71.42
2023-02-25T13:14:52.105Z,70.55
2023-02-25T13:16:11.861Z,72.17
2023-02-25T13:17:20.193Z,70.93
2023-02-25T13:18:40.325Z,72.04
2023-02-25T13:20:00.275Z,70.97
2023-02-25T13:21:14.350Z,70.94
2023-02-25T13:22:15.565Z,71.73
2023-02-25T13:23:22.130Z,71.51
2023-02-25T13:24:42.352Z,70.95
2023-02-25T13:26:03.876Z,71.50
2023-02-25T13:27:12.382Z,72.88
2023-02-25T13:28:16.420Z,72.65
2023-02-25T13:29:35.766Z,70.47
2023-02-25T13:30:39.098Z,69.00
2023-02-25T13:31:40.420Z,70.23
2023-02-25T13:33:01.896Z,69.69
2023-02-25T13:34:12.162Z,69.36
2023-02-25T13:35:16.088Z,68.32
2023-02-25T13:36:20.128Z,69.23
2023-02-25T13:37:24.500Z,68.79
2023-02-25T13:38:48.043Z,67.87
2023-02-25T13:39:52.212Z,68.81
2023-02-25T13:41:08.103Z,69.56
2023-02-25T13:42:09.296Z,68.91
2023-02-25T13:43:21.697Z,66.80
2023-02-25T13:44:26.266Z,67.59
2023-02-25T13:45:38.003Z,69.95
2023-02-25T13:46:39.294Z,68.78
2023-02-25T13:47:52.508Z,70.31
2023-02-25T13:49:05.738Z,69.68
2023-02-25T13:50:31.022Z,69.00
2023-02-25T13:51:32.566Z,67.87